ENZV/SVG METAR and TAF weather

Enter ICAO airport designator
Station Type Date Time Source
ENZV METAR 2019/04/19 22:20 UTC NOAA

ENZV 192220Z 05002KT CAVOK 07/02 Q1036


Station Type Date Time Source
ENZV Decoded METAR 2019/04/19 22:20 UTC NOAA

Stavanger / Sola, Norway (ENZV) 58-53N 005-38E 9M
Apr 19, 2019 - 06:20 PM EDT / 2019.04.19 2220 UTC
Wind: from the NE (050 degrees) at 2 MPH (2 KT):0
Visibility: greater than 7 mile(s):0
Temperature: 44 F (7 C)
Dew Point: 35 F (2 C)
Relative Humidity: 70%
Pressure (altimeter): 30.59 in. Hg (1036 hPa)
ob: ENZV 192220Z 05002KT CAVOK 07/02 Q1036
cycle: 22

Station Type Date Time Source
ENZV TAF 2019/04/19 18:57 UTC NOAA

TAF ENZV 191700Z 1918/2018 20010KT CAVOK
BECMG 1919/1921 VRB05KT
BECMG 2008/2010 20010KT

Example: see airport list